sensor_id;sensor_type;location;lat;lon;timestamp;pressure;altitude;pressure_sealevel;temperature;humidity
27144;BME280;14672;50.250;8.312;2023-06-22T00:00:51;98874.94;;;25.19;58.83
27144;BME280;14672;50.250;8.312;2023-06-22T00:03:19;98893.72;;;25.18;59.39
27144;BME280;14672;50.250;8.312;2023-06-22T00:05:46;98899.00;;;25.07;59.97
27144;BME280;14672;50.250;8.312;2023-06-22T00:08:13;98914.31;;;25.07;60.44
27144;BME280;14672;50.250;8.312;2023-06-22T00:10:39;98924.69;;;25.03;60.74
27144;BME280;14672;50.250;8.312;2023-06-22T00:13:07;98933.66;;;25.18;59.92
27144;BME280;14672;50.250;8.312;2023-06-22T00:15:34;98940.94;;;25.11;59.18
27144;BME280;14672;50.250;8.312;2023-06-22T00:17:59;98953.88;;;25.10;59.35
27144;BME280;14672;50.250;8.312;2023-06-22T00:20:26;98956.34;;;25.06;59.65
27144;BME280;14672;50.250;8.312;2023-06-22T00:22:54;98969.88;;;25.04;59.30
27144;BME280;14672;50.250;8.312;2023-06-22T00:25:20;98971.34;;;25.10;59.64
27144;BME280;14672;50.250;8.312;2023-06-22T00:27:46;98977.69;;;24.96;60.53
27144;BME280;14672;50.250;8.312;2023-06-22T00:30:12;98975.53;;;24.96;60.67
27144;BME280;14672;50.250;8.312;2023-06-22T00:32:38;98971.09;;;24.95;60.45
27144;BME280;14672;50.250;8.312;2023-06-22T00:35:04;98981.81;;;24.87;61.99
27144;BME280;14672;50.250;8.312;2023-06-22T00:37:30;98979.75;;;24.82;62.22
27144;BME280;14672;50.250;8.312;2023-06-22T00:39:56;98970.56;;;24.78;62.11
27144;BME280;14672;50.250;8.312;2023-06-22T00:42:22;98980.78;;;24.85;63.03
27144;BME280;14672;50.250;8.312;2023-06-22T00:44:48;98988.88;;;24.73;63.73
27144;BME280;14672;50.250;8.312;2023-06-22T00:47:16;98993.72;;;24.84;63.85
27144;BME280;14672;50.250;8.312;2023-06-22T00:49:43;98993.13;;;24.72;64.51
27144;BME280;14672;50.250;8.312;2023-06-22T00:52:10;99007.34;;;24.75;63.87
27144;BME280;14672;50.250;8.312;2023-06-22T00:54:43;99017.94;;;24.73;64.37
27144;BME280;14672;50.250;8.312;2023-06-22T00:57:15;99029.41;;;24.65;65.10
27144;BME280;14672;50.250;8.312;2023-06-22T00:59:45;99036.34;;;24.62;64.81
27144;BME280;14672;50.250;8.312;2023-06-22T01:02:12;99039.00;;;24.60;65.64
27144;BME280;14672;50.250;8.312;2023-06-22T01:04:39;99048.28;;;24.59;66.05
27144;BME280;14672;50.250;8.312;2023-06-22T01:10:14;99053.78;;;24.44;66.83
27144;BME280;14672;50.250;8.312;2023-06-22T01:12:57;99044.34;;;24.38;67.33
27144;BME280;14672;50.250;8.312;2023-06-22T01:16:10;99048.13;;;24.32;67.44
27144;BME280;14672;50.250;8.312;2023-06-22T01:18:42;99040.38;;;24.22;68.40
27144;BME280;14672;50.250;8.312;2023-06-22T01:21:13;99039.72;;;24.29;68.42
27144;BME280;14672;50.250;8.312;2023-06-22T01:24:15;99027.47;;;24.17;69.08
27144;BME280;14672;50.250;8.312;2023-06-22T01:29:54;98974.38;;;24.22;69.17
27144;BME280;14672;50.250;8.312;2023-06-22T01:32:29;98954.03;;;24.22;68.74
27144;BME280;14672;50.250;8.312;2023-06-22T01:35:01;98945.34;;;24.22;68.72
27144;BME280;14672;50.250;8.312;2023-06-22T01:37:29;98941.44;;;24.20;67.95
27144;BME280;14672;50.250;8.312;2023-06-22T01:39:58;98948.94;;;23.91;69.48
27144;BME280;14672;50.250;8.312;2023-06-22T01:42:25;98954.03;;;24.04;69.46
27144;BME280;14672;50.250;8.312;2023-06-22T01:44:53;98948.88;;;24.15;68.75
27144;BME280;14672;50.250;8.312;2023-06-22T01:47:21;98958.50;;;24.05;69.03
27144;BME280;14672;50.250;8.312;2023-06-22T01:49:48;98978.28;;;24.06;69.21
27144;BME280;14672;50.250;8.312;2023-06-22T01:52:14;98976.47;;;24.03;69.56
27144;BME280;14672;50.250;8.312;2023-06-22T01:54:41;98991.22;;;24.05;69.43
27144;BME280;14672;50.250;8.312;2023-06-22T01:57:07;98990.34;;;24.10;69.06
27144;BME280;14672;50.250;8.312;2023-06-22T02:00:04;98977.16;;;24.09;69.15
27144;BME280;14672;50.250;8.312;2023-06-22T02:02:43;98972.94;;;24.10;69.40
27144;BME280;14672;50.250;8.312;2023-06-22T02:05:17;98965.56;;;24.09;69.88
27144;BME280;14672;50.250;8.312;2023-06-22T02:08:08;98932.63;;;24.07;70.25
27144;BME280;14672;50.250;8.312;2023-06-22T02:10:37;98915.53;;;24.03;69.90
27144;BME280;14672;50.250;8.312;2023-06-22T02:13:07;98901.88;;;23.98;70.50
27144;BME280;14672;50.250;8.312;2023-06-22T02:15:33;98900.91;;;24.09;69.64
27144;BME280;14672;50.250;8.312;2023-06-22T02:18:00;98898.31;;;24.05;70.05
27144;BME280;14672;50.250;8.312;2023-06-22T02:20:26;98922.91;;;24.04;70.53
27144;BME280;14672;50.250;8.312;2023-06-22T02:22:52;98937.34;;;23.91;71.06
27144;BME280;14672;50.250;8.312;2023-06-22T02:25:18;98928.78;;;23.99;70.44
27144;BME280;14672;50.250;8.312;2023-06-22T02:27:44;98936.06;;;23.86;70.77
27144;BME280;14672;50.250;8.312;2023-06-22T02:30:12;98943.69;;;23.90;70.81
27144;BME280;14672;50.250;8.312;2023-06-22T02:32:40;98945.25;;;23.91;70.34
27144;BME280;14672;50.250;8.312;2023-06-22T02:35:08;98946.56;;;23.90;71.05
27144;BME280;14672;50.250;8.312;2023-06-22T02:37:38;98950.03;;;23.88;70.87
27144;BME280;14672;50.250;8.312;2023-06-22T02:40:08;98965.72;;;23.98;70.07
27144;BME280;14672;50.250;8.312;2023-06-22T02:42:39;98968.63;;;23.98;70.27
27144;BME280;14672;50.250;8.312;2023-06-22T02:45:05;98960.53;;;23.91;70.84
27144;BME280;14672;50.250;8.312;2023-06-22T02:47:32;98923.94;;;23.88;70.60
27144;BME280;14672;50.250;8.312;2023-06-22T02:49:57;98902.56;;;23.85;71.12
27144;BME280;14672;50.250;8.312;2023-06-22T02:52:23;98903.28;;;23.73;71.27
27144;BME280;14672;50.250;8.312;2023-06-22T02:54:49;98900.94;;;23.71;71.24
27144;BME280;14672;50.250;8.312;2023-06-22T02:57:15;98910.13;;;23.75;71.06
27144;BME280;14672;50.250;8.312;2023-06-22T02:59:41;98904.38;;;23.70;71.57
27144;BME280;14672;50.250;8.312;2023-06-22T03:02:08;98899.84;;;23.74;71.52
27144;BME280;14672;50.250;8.312;2023-06-22T03:04:38;98898.91;;;23.66;71.97
27144;BME280;14672;50.250;8.312;2023-06-22T03:07:04;98886.50;;;23.66;71.36
27144;BME280;14672;50.250;8.312;2023-06-22T03:09:30;98896.09;;;23.61;71.96
27144;BME280;14672;50.250;8.312;2023-06-22T03:11:59;98898.69;;;23.64;71.58
27144;BME280;14672;50.250;8.312;2023-06-22T03:14:24;98884.94;;;23.46;72.14
27144;BME280;14672;50.250;8.312;2023-06-22T03:16:50;98884.09;;;23.51;72.11
27144;BME280;14672;50.250;8.312;2023-06-22T03:19:16;98883.56;;;23.53;71.20
27144;BME280;14672;50.250;8.312;2023-06-22T03:21:42;98879.13;;;23.46;72.10
27144;BME280;14672;50.250;8.312;2023-06-22T03:24:08;98881.41;;;23.53;71.69
27144;BME280;14672;50.250;8.312;2023-06-22T03:26:34;98878.03;;;23.49;71.70
27144;BME280;14672;50.250;8.312;2023-06-22T03:29:00;98877.75;;;23.53;71.58
27144;BME280;14672;50.250;8.312;2023-06-22T03:31:26;98884.94;;;23.46;71.88
27144;BME280;14672;50.250;8.312;2023-06-22T03:33:52;98876.81;;;23.45;71.91
27144;BME280;14672;50.250;8.312;2023-06-22T03:36:18;98872.34;;;23.44;72.02
27144;BME280;14672;50.250;8.312;2023-06-22T03:38:49;98877.28;;;23.49;72.09
27144;BME280;14672;50.250;8.312;2023-06-22T03:41:17;98875.50;;;23.40;72.28
27144;BME280;14672;50.250;8.312;2023-06-22T03:43:43;98884.75;;;23.38;71.77
27144;BME280;14672;50.250;8.312;2023-06-22T03:46:09;98880.94;;;23.49;71.75
27144;BME280;14672;50.250;8.312;2023-06-22T03:48:34;98885.09;;;23.54;71.68
27144;BME280;14672;50.250;8.312;2023-06-22T03:51:01;98883.72;;;23.60;71.01
27144;BME280;14672;50.250;8.312;2023-06-22T03:53:27;98888.72;;;23.60;70.76
27144;BME280;14672;50.250;8.312;2023-06-22T03:55:53;98888.41;;;23.63;70.98
27144;BME280;14672;50.250;8.312;2023-06-22T03:58:20;98883.06;;;23.49;71.70
27144;BME280;14672;50.250;8.312;2023-06-22T04:00:48;98901.00;;;23.47;71.58
27144;BME280;14672;50.250;8.312;2023-06-22T04:03:14;98889.75;;;23.38;73.03
27144;BME280;14672;50.250;8.312;2023-06-22T04:05:41;98891.53;;;23.47;72.25
27144;BME280;14672;50.250;8.312;2023-06-22T04:08:06;98889.34;;;23.53;72.20
27144;BME280;14672;50.250;8.312;2023-06-22T04:10:35;98896.94;;;23.56;71.56
27144;BME280;14672;50.250;8.312;2023-06-22T04:13:01;98897.66;;;23.37;72.34
27144;BME280;14672;50.250;8.312;2023-06-22T04:15:27;98889.94;;;23.46;72.31
27144;BME280;14672;50.250;8.312;2023-06-22T04:17:55;98890.31;;;23.36;72.49
27144;BME280;14672;50.250;8.312;2023-06-22T04:20:22;98899.25;;;23.38;72.32
27144;BME280;14672;50.250;8.312;2023-06-22T04:22:47;98900.00;;;23.45;72.45
27144;BME280;14672;50.250;8.312;2023-06-22T04:25:14;98896.94;;;23.56;71.96
27144;BME280;14672;50.250;8.312;2023-06-22T04:27:39;98906.03;;;23.47;72.46
27144;BME280;14672;50.250;8.312;2023-06-22T04:30:08;98905.50;;;23.48;72.16
27144;BME280;14672;50.250;8.312;2023-06-22T04:32:35;98908.19;;;23.40;72.47
27144;BME280;14672;50.250;8.312;2023-06-22T04:35:05;98907.91;;;23.44;72.74
27144;BME280;14672;50.250;8.312;2023-06-22T04:37:33;98906.28;;;23.49;72.75
27144;BME280;14672;50.250;8.312;2023-06-22T04:39:58;98913.09;;;23.51;72.28
27144;BME280;14672;50.250;8.312;2023-06-22T04:42:27;98909.25;;;23.62;72.47
27144;BME280;14672;50.250;8.312;2023-06-22T04:44:53;98918.81;;;23.57;72.35
27144;BME280;14672;50.250;8.312;2023-06-22T04:47:19;98911.66;;;23.58;72.30
27144;BME280;14672;50.250;8.312;2023-06-22T04:49:45;98910.50;;;23.48;72.60
27144;BME280;14672;50.250;8.312;2023-06-22T04:52:12;98910.34;;;23.59;72.70
27144;BME280;14672;50.250;8.312;2023-06-22T04:54:40;98901.91;;;23.61;72.67
27144;BME280;14672;50.250;8.312;2023-06-22T04:57:13;98903.53;;;23.56;72.46
27144;BME280;14672;50.250;8.312;2023-06-22T04:59:40;98897.66;;;23.62;73.02
27144;BME280;14672;50.250;8.312;2023-06-22T05:02:07;98901.09;;;23.60;72.72
27144;BME280;14672;50.250;8.312;2023-06-22T05:04:34;98903.75;;;23.77;71.55
27144;BME280;14672;50.250;8.312;2023-06-22T05:07:02;98898.53;;;23.75;72.03
27144;BME280;14672;50.250;8.312;2023-06-22T05:09:29;98900.00;;;23.82;72.57
27144;BME280;14672;50.250;8.312;2023-06-22T05:11:55;98899.34;;;23.89;72.05
27144;BME280;14672;50.250;8.312;2023-06-22T05:14:25;98887.53;;;23.87;72.32
27144;BME280;14672;50.250;8.312;2023-06-22T05:16:51;98884.63;;;23.87;73.20
27144;BME280;14672;50.250;8.312;2023-06-22T05:19:17;98895.84;;;23.96;71.10
27144;BME280;14672;50.250;8.312;2023-06-22T05:21:43;98902.81;;;23.88;71.96
27144;BME280;14672;50.250;8.312;2023-06-22T05:24:09;98892.94;;;23.96;71.87
27144;BME280;14672;50.250;8.312;2023-06-22T05:26:35;98902.94;;;24.14;70.74
27144;BME280;14672;50.250;8.312;2023-06-22T05:29:02;98893.88;;;24.04;70.72
27144;BME280;14672;50.250;8.312;2023-06-22T05:31:29;98892.66;;;24.13;70.49
27144;BME280;14672;50.250;8.312;2023-06-22T05:33:55;98891.66;;;24.10;70.45
27144;BME280;14672;50.250;8.312;2023-06-22T05:36:22;98902.16;;;24.13;71.08
27144;BME280;14672;50.250;8.312;2023-06-22T05:38:56;98884.22;;;24.15;71.59
27144;BME280;14672;50.250;8.312;2023-06-22T05:41:22;98881.47;;;24.22;70.79
27144;BME280;14672;50.250;8.312;2023-06-22T05:43:48;98877.88;;;24.16;71.13
27144;BME280;14672;50.250;8.312;2023-06-22T05:46:14;98881.13;;;24.26;71.25
27144;BME280;14672;50.250;8.312;2023-06-22T05:48:40;98870.78;;;24.30;70.27
27144;BME280;14672;50.250;8.312;2023-06-22T05:51:05;98873.22;;;24.26;70.98
27144;BME280;14672;50.250;8.312;2023-06-22T05:53:31;98875.91;;;24.38;70.01
27144;BME280;14672;50.250;8.312;2023-06-22T05:55:57;98880.44;;;24.52;68.61
27144;BME280;14672;50.250;8.312;2023-06-22T05:58:22;98877.69;;;24.27;70.84
27144;BME280;14672;50.250;8.312;2023-06-22T06:00:48;98880.34;;;24.25;70.64
27144;BME280;14672;50.250;8.312;2023-06-22T06:03:14;98877.22;;;24.23;71.33
27144;BME280;14672;50.250;8.312;2023-06-22T06:05:43;98880.47;;;24.33;71.09
27144;BME280;14672;50.250;8.312;2023-06-22T06:08:10;98886.53;;;24.35;71.90
27144;BME280;14672;50.250;8.312;2023-06-22T06:10:36;98879.53;;;24.44;71.25
27144;BME280;14672;50.250;8.312;2023-06-22T06:13:02;98876.94;;;24.40;72.04
27144;BME280;14672;50.250;8.312;2023-06-22T06:15:30;98880.41;;;24.39;71.77
27144;BME280;14672;50.250;8.312;2023-06-22T06:17:56;98872.59;;;24.47;71.37
27144;BME280;14672;50.250;8.312;2023-06-22T06:20:25;98881.97;;;24.53;72.51
27144;BME280;14672;50.250;8.312;2023-06-22T06:22:52;98882.56;;;24.51;72.33
27144;BME280;14672;50.250;8.312;2023-06-22T06:25:18;98882.69;;;24.59;71.70
27144;BME280;14672;50.250;8.312;2023-06-22T06:27:46;98888.72;;;24.61;72.42
27144;BME280;14672;50.250;8.312;2023-06-22T06:30:14;98892.19;;;24.72;71.34
27144;BME280;14672;50.250;8.312;2023-06-22T06:32:42;98883.81;;;24.69;71.71
27144;BME280;14672;50.250;8.312;2023-06-22T06:35:13;98883.22;;;24.57;71.92
27144;BME280;14672;50.250;8.312;2023-06-22T06:37:43;98878.44;;;24.73;71.39
27144;BME280;14672;50.250;8.312;2023-06-22T06:40:12;98873.88;;;24.77;71.87
27144;BME280;14672;50.250;8.312;2023-06-22T06:42:47;98879.16;;;24.79;72.45
27144;BME280;14672;50.250;8.312;2023-06-22T06:47:41;98870.09;;;24.83;71.64
27144;BME280;14672;50.250;8.312;2023-06-22T06:50:08;98859.94;;;24.89;71.56
27144;BME280;14672;50.250;8.312;2023-06-22T06:52:34;98865.06;;;24.83;72.62
27144;BME280;14672;50.250;8.312;2023-06-22T06:55:03;98863.53;;;24.95;71.37
27144;BME280;14672;50.250;8.312;2023-06-22T06:57:34;98857.72;;;24.95;73.15
27144;BME280;14672;50.250;8.312;2023-06-22T07:00:03;98858.84;;;25.05;72.65
27144;BME280;14672;50.250;8.312;2023-06-22T07:02:35;98857.72;;;25.08;72.02
27144;BME280;14672;50.250;8.312;2023-06-22T07:05:01;98862.19;;;25.09;71.95
27144;BME280;14672;50.250;8.312;2023-06-22T07:07:30;98866.22;;;25.06;73.33
27144;BME280;14672;50.250;8.312;2023-06-22T07:09:55;98862.53;;;25.19;73.22
27144;BME280;14672;50.250;8.312;2023-06-22T07:12:21;98852.66;;;25.35;72.23
27144;BME280;14672;50.250;8.312;2023-06-22T07:14:47;98848.53;;;25.44;72.26
27144;BME280;14672;50.250;8.312;2023-06-22T07:17:13;98845.03;;;25.45;73.32
27144;BME280;14672;50.250;8.312;2023-06-22T07:19:39;98842.56;;;25.49;71.65
27144;BME280;14672;50.250;8.312;2023-06-22T07:22:05;98851.09;;;25.47;72.08
27144;BME280;14672;50.250;8.312;2023-06-22T07:24:31;98844.69;;;25.49;71.51
27144;BME280;14672;50.250;8.312;2023-06-22T07:26:58;98846.47;;;25.65;71.11
27144;BME280;14672;50.250;8.312;2023-06-22T07:29:25;98849.34;;;25.78;71.66
27144;BME280;14672;50.250;8.312;2023-06-22T07:31:52;98847.31;;;25.86;71.01
27144;BME280;14672;50.250;8.312;2023-06-22T07:34:18;98837.66;;;25.91;70.40
27144;BME280;14672;50.250;8.312;2023-06-22T07:36:44;98833.47;;;26.00;70.39
27144;BME280;14672;50.250;8.312;2023-06-22T07:39:11;98833.91;;;26.04;70.52
27144;BME280;14672;50.250;8.312;2023-06-22T07:41:38;98835.09;;;26.22;70.31
27144;BME280;14672;50.250;8.312;2023-06-22T07:44:04;98823.72;;;26.31;69.85
27144;BME280;14672;50.250;8.312;2023-06-22T07:46:32;98828.03;;;26.38;69.56
27144;BME280;14672;50.250;8.312;2023-06-22T07:48:58;98814.47;;;26.40;68.83
27144;BME280;14672;50.250;8.312;2023-06-22T07:51:25;98800.19;;;26.50;68.61
27144;BME280;14672;50.250;8.312;2023-06-22T07:53:51;98804.91;;;26.60;67.93
27144;BME280;14672;50.250;8.312;2023-06-22T07:56:17;98793.72;;;26.72;68.06
27144;BME280;14672;50.250;8.312;2023-06-22T07:58:46;98791.63;;;26.80;68.82
27144;BME280;14672;50.250;8.312;2023-06-22T08:01:16;98795.56;;;26.83;67.25
27144;BME280;14672;50.250;8.312;2023-06-22T08:03:42;98792.91;;;26.92;66.84
27144;BME280;14672;50.250;8.312;2023-06-22T08:06:09;98782.50;;;27.04;66.80
27144;BME280;14672;50.250;8.312;2023-06-22T08:08:36;98781.19;;;27.13;66.36
27144;BME280;14672;50.250;8.312;2023-06-22T08:11:02;98770.72;;;27.25;66.42
27144;BME280;14672;50.250;8.312;2023-06-22T08:13:28;98771.69;;;27.28;65.41
27144;BME280;14672;50.250;8.312;2023-06-22T08:15:53;98775.25;;;27.34;64.78
27144;BME280;14672;50.250;8.312;2023-06-22T08:18:19;98771.44;;;27.46;64.92
27144;BME280;14672;50.250;8.312;2023-06-22T08:20:45;98764.25;;;27.55;64.33
27144;BME280;14672;50.250;8.312;2023-06-22T08:23:11;98759.41;;;27.65;63.15
27144;BME280;14672;50.250;8.312;2023-06-22T08:25:37;98760.22;;;27.73;62.77
27144;BME280;14672;50.250;8.312;2023-06-22T08:28:04;98756.09;;;27.53;63.03
27144;BME280;14672;50.250;8.312;2023-06-22T08:30:30;98753.22;;;27.84;61.10
27144;BME280;14672;50.250;8.312;2023-06-22T08:32:56;98750.69;;;27.95;60.18
27144;BME280;14672;50.250;8.312;2023-06-22T08:35:23;98735.13;;;28.08;59.10
27144;BME280;14672;50.250;8.312;2023-06-22T08:37:49;98739.84;;;28.19;59.11
27144;BME280;14672;50.250;8.312;2023-06-22T08:40:24;98735.16;;;28.31;58.20
27144;BME280;14672;50.250;8.312;2023-06-22T08:42:50;98736.94;;;28.41;58.04
27144;BME280;14672;50.250;8.312;2023-06-22T08:45:15;98742.38;;;28.45;56.92
27144;BME280;14672;50.250;8.312;2023-06-22T08:47:42;98735.34;;;28.56;56.43
27144;BME280;14672;50.250;8.312;2023-06-22T08:50:09;98721.69;;;28.66;57.16
27144;BME280;14672;50.250;8.312;2023-06-22T08:52:36;98730.66;;;28.75;57.95
27144;BME280;14672;50.250;8.312;2023-06-22T08:55:05;98725.19;;;28.79;56.21
27144;BME280;14672;50.250;8.312;2023-06-22T08:57:31;98724.38;;;28.94;56.03
27144;BME280;14672;50.250;8.312;2023-06-22T08:59:58;98711.94;;;28.78;55.29
27144;BME280;14672;50.250;8.312;2023-06-22T09:02:27;98710.50;;;28.94;55.23
27144;BME280;14672;50.250;8.312;2023-06-22T09:04:57;98704.66;;;29.02;54.88
27144;BME280;14672;50.250;8.312;2023-06-22T09:07:24;98702.22;;;29.16;54.83
27144;BME280;14672;50.250;8.312;2023-06-22T09:09:50;98702.81;;;29.22;53.90
27144;BME280;14672;50.250;8.312;2023-06-22T09:12:17;98700.59;;;29.37;54.42
27144;BME280;14672;50.250;8.312;2023-06-22T09:14:45;98700.72;;;29.47;54.42
27144;BME280;14672;50.250;8.312;2023-06-22T09:17:13;98693.31;;;29.46;52.73
27144;BME280;14672;50.250;8.312;2023-06-22T09:19:38;98693.28;;;29.54;53.77
27144;BME280;14672;50.250;8.312;2023-06-22T09:22:05;98675.66;;;29.61;54.10
27144;BME280;14672;50.250;8.312;2023-06-22T09:24:32;98679.13;;;29.67;53.02
27144;BME280;14672;50.250;8.312;2023-06-22T09:26:58;98681.06;;;29.72;53.14
27144;BME280;14672;50.250;8.312;2023-06-22T09:29:25;98678.47;;;29.76;52.59
27144;BME280;14672;50.250;8.312;2023-06-22T09:31:50;98684.66;;;29.88;52.51
27144;BME280;14672;50.250;8.312;2023-06-22T09:34:19;98677.91;;;30.03;51.83
27144;BME280;14672;50.250;8.312;2023-06-22T09:36:46;98676.97;;;30.00;52.45
27144;BME280;14672;50.250;8.312;2023-06-22T09:39:12;98682.03;;;30.00;52.16
27144;BME280;14672;50.250;8.312;2023-06-22T09:41:37;98678.03;;;30.12;52.02
27144;BME280;14672;50.250;8.312;2023-06-22T09:44:03;98668.81;;;30.16;52.12
27144;BME280;14672;50.250;8.312;2023-06-22T09:46:29;98671.38;;;30.12;51.88
27144;BME280;14672;50.250;8.312;2023-06-22T09:48:55;98664.09;;;30.20;51.09
27144;BME280;14672;50.250;8.312;2023-06-22T09:51:22;98661.22;;;30.13;51.64
27144;BME280;14672;50.250;8.312;2023-06-22T09:53:50;98666.16;;;30.27;50.68
27144;BME280;14672;50.250;8.312;2023-06-22T09:56:15;98649.50;;;30.30;50.35
27144;BME280;14672;50.250;8.312;2023-06-22T09:58:46;98651.13;;;30.48;50.34
27144;BME280;14672;50.250;8.312;2023-06-22T10:01:12;98652.84;;;30.51;51.53
27144;BME280;14672;50.250;8.312;2023-06-22T10:03:40;98643.53;;;30.45;50.72
27144;BME280;14672;50.250;8.312;2023-06-22T10:06:07;98637.16;;;30.56;50.95
27144;BME280;14672;50.250;8.312;2023-06-22T10:08:33;98623.81;;;30.38;50.52
27144;BME280;14672;50.250;8.312;2023-06-22T10:10:59;98623.97;;;30.48;49.94
27144;BME280;14672;50.250;8.312;2023-06-22T10:13:24;98625.09;;;30.52;50.08
27144;BME280;14672;50.250;8.312;2023-06-22T10:15:50;98626.38;;;30.59;50.62
27144;BME280;14672;50.250;8.312;2023-06-22T10:18:21;98622.84;;;30.60;50.35
27144;BME280;14672;50.250;8.312;2023-06-22T10:20:50;98605.50;;;30.72;50.01
27144;BME280;14672;50.250;8.312;2023-06-22T10:23:18;98600.19;;;30.88;51.06
27144;BME280;14672;50.250;8.312;2023-06-22T10:25:47;98597.53;;;30.82;50.32
27144;BME280;14672;50.250;8.312;2023-06-22T10:28:13;98598.72;;;30.96;50.48
27144;BME280;14672;50.250;8.312;2023-06-22T10:30:40;98588.03;;;30.91;48.92
27144;BME280;14672;50.250;8.312;2023-06-22T10:33:09;98596.56;;;30.97;49.53
27144;BME280;14672;50.250;8.312;2023-06-22T10:35:36;98605.03;;;30.93;49.70
27144;BME280;14672;50.250;8.312;2023-06-22T10:38:06;98599.72;;;30.64;48.81
27144;BME280;14672;50.250;8.312;2023-06-22T10:40:32;98608.13;;;30.77;49.01
27144;BME280;14672;50.250;8.312;2023-06-22T10:42:57;98597.28;;;31.05;49.86
27144;BME280;14672;50.250;8.312;2023-06-22T10:45:23;98591.78;;;31.18;48.49
27144;BME280;14672;50.250;8.312;2023-06-22T10:47:49;98585.00;;;31.26;48.84
27144;BME280;14672;50.250;8.312;2023-06-22T10:50:15;98573.31;;;31.35;48.01
27144;BME280;14672;50.250;8.312;2023-06-22T10:52:41;98571.50;;;31.40;49.00
27144;BME280;14672;50.250;8.312;2023-06-22T10:55:08;98570.00;;;31.48;48.88
27144;BME280;14672;50.250;8.312;2023-06-22T10:57:34;98562.88;;;31.51;48.94
27144;BME280;14672;50.250;8.312;2023-06-22T11:00:00;98556.78;;;31.66;49.32
27144;BME280;14672;50.250;8.312;2023-06-22T11:02:26;98546.28;;;31.73;47.69
27144;BME280;14672;50.250;8.312;2023-06-22T11:04:53;98537.34;;;31.81;48.63
27144;BME280;14672;50.250;8.312;2023-06-22T11:07:19;98541.41;;;31.95;49.00
27144;BME280;14672;50.250;8.312;2023-06-22T11:09:45;98525.53;;;31.61;47.06
27144;BME280;14672;50.250;8.312;2023-06-22T11:12:11;98523.25;;;31.69;47.72
27144;BME280;14672;50.250;8.312;2023-06-22T11:14:38;98521.75;;;31.97;49.31
27144;BME280;14672;50.250;8.312;2023-06-22T11:17:04;98532.63;;;32.14;49.44
27144;BME280;14672;50.250;8.312;2023-06-22T11:19:30;98522.75;;;32.29;49.20
27144;BME280;14672;50.250;8.312;2023-06-22T11:21:56;98523.31;;;31.98;47.38
27144;BME280;14672;50.250;8.312;2023-06-22T11:24:22;98516.22;;;32.30;47.20
27144;BME280;14672;50.250;8.312;2023-06-22T11:26:47;98509.91;;;32.24;45.28
27144;BME280;14672;50.250;8.312;2023-06-22T11:29:13;98504.41;;;31.82;45.66
27144;BME280;14672;50.250;8.312;2023-06-22T11:31:39;98494.72;;;32.18;45.31
27144;BME280;14672;50.250;8.312;2023-06-22T11:34:05;98493.03;;;32.34;45.17
27144;BME280;14672;50.250;8.312;2023-06-22T11:36:30;98490.09;;;32.34;45.59
27144;BME280;14672;50.250;8.312;2023-06-22T11:38:59;98497.22;;;32.31;44.62
27144;BME280;14672;50.250;8.312;2023-06-22T11:41:24;98477.69;;;32.45;44.54
27144;BME280;14672;50.250;8.312;2023-06-22T11:43:50;98493.34;;;32.48;44.62
27144;BME280;14672;50.250;8.312;2023-06-22T11:46:16;98488.22;;;32.68;44.54
27144;BME280;14672;50.250;8.312;2023-06-22T11:48:41;98481.06;;;32.80;44.33
27144;BME280;14672;50.250;8.312;2023-06-22T11:51:07;98487.28;;;32.75;44.44
27144;BME280;14672;50.250;8.312;2023-06-22T11:53:34;98482.09;;;32.94;44.14
27144;BME280;14672;50.250;8.312;2023-06-22T11:56:01;98479.13;;;33.04;43.99
27144;BME280;14672;50.250;8.312;2023-06-22T11:58:27;98488.88;;;33.06;43.61
27144;BME280;14672;50.250;8.312;2023-06-22T12:00:53;98480.19;;;33.18;43.11
27144;BME280;14672;50.250;8.312;2023-06-22T12:03:19;98482.25;;;33.37;42.65
27144;BME280;14672;50.250;8.312;2023-06-22T12:05:47;98486.94;;;33.30;43.32
27144;BME280;14672;50.250;8.312;2023-06-22T12:08:13;98490.31;;;33.36;43.18
27144;BME280;14672;50.250;8.312;2023-06-22T12:10:39;98476.09;;;33.64;44.42
27144;BME280;14672;50.250;8.312;2023-06-22T12:13:05;98475.56;;;33.77;43.61
27144;BME280;14672;50.250;8.312;2023-06-22T12:15:31;98485.88;;;33.57;42.46
27144;BME280;14672;50.250;8.312;2023-06-22T12:17:56;98472.69;;;33.58;41.26
27144;BME280;14672;50.250;8.312;2023-06-22T12:20:22;98472.31;;;33.73;42.04
27144;BME280;14672;50.250;8.312;2023-06-22T12:22:48;98461.59;;;33.98;41.83
27144;BME280;14672;50.250;8.312;2023-06-22T12:25:16;98459.28;;;33.97;40.88
27144;BME280;14672;50.250;8.312;2023-06-22T12:27:42;98461.38;;;34.27;40.36
27144;BME280;14672;50.250;8.312;2023-06-22T12:30:08;98459.91;;;33.95;40.92
27144;BME280;14672;50.250;8.312;2023-06-22T12:32:34;98455.34;;;34.25;40.57
27144;BME280;14672;50.250;8.312;2023-06-22T12:35:00;98460.19;;;34.54;40.42
27144;BME280;14672;50.250;8.312;2023-06-22T12:37:26;98444.56;;;34.63;39.63
27144;BME280;14672;50.250;8.312;2023-06-22T12:39:54;98435.91;;;34.76;39.40
27144;BME280;14672;50.250;8.312;2023-06-22T12:42:23;98443.97;;;34.31;40.10
27144;BME280;14672;50.250;8.312;2023-06-22T12:44:48;98427.66;;;34.63;39.82
27144;BME280;14672;50.250;8.312;2023-06-22T12:47:14;98429.09;;;34.74;39.74
27144;BME280;14672;50.250;8.312;2023-06-22T12:49:40;98433.06;;;34.67;40.51
27144;BME280;14672;50.250;8.312;2023-06-22T12:52:09;98428.75;;;34.79;40.70
27144;BME280;14672;50.250;8.312;2023-06-22T12:54:36;98431.72;;;34.91;40.34
27144;BME280;14672;50.250;8.312;2023-06-22T12:57:02;98426.09;;;34.62;40.09
27144;BME280;14672;50.250;8.312;2023-06-22T12:59:31;98412.03;;;34.72;40.66
27144;BME280;14672;50.250;8.312;2023-06-22T13:01:57;98414.31;;;34.62;40.70
27144;BME280;14672;50.250;8.312;2023-06-22T13:04:22;98412.81;;;34.84;40.92
27144;BME280;14672;50.250;8.312;2023-06-22T13:06:48;98400.53;;;35.11;40.94
27144;BME280;14672;50.250;8.312;2023-06-22T13:09:17;98404.91;;;35.22;40.53